Time;durP1;ratioP1;P1;durP2;ratioP2;P2;SDS_P1;SDS_P2;PMS_P1;PMS_P2;Temp;Humidity;BMP_temperature;BMP_pressure;BME280_temperature;BME280_humidity;BME280_pressure;Samples;Min_cycle;Max_cycle;Signal;HPM_P1;HPM_P2
2022/05/02 00:00:44;;;;;;;8.20;5.60;;;6.90;99.90;;;;;;5106365;28;20054;-75
2022/05/02 00:03:11;;;;;;;8.10;5.53;;;6.90;99.90;;;;;;5095589;28;20502;-76
2022/05/02 00:05:37;;;;;;;11.98;5.95;;;6.80;99.90;;;;;;5101488;28;20433;-75
2022/05/02 00:08:03;;;;;;;11.70;6.03;;;6.80;99.90;;;;;;5094217;28;20055;-75
2022/05/02 00:10:29;;;;;;;11.63;6.38;;;6.80;99.90;;;;;;5094340;28;20040;-76
2022/05/02 00:12:55;;;;;;;10.00;6.15;;;6.70;99.90;;;;;;5094612;28;20092;-77
2022/05/02 00:15:20;;;;;;;8.55;5.80;;;6.70;99.90;;;;;;5094966;28;20454;-74
2022/05/02 00:17:58;;;;;;;11.93;5.68;;;6.70;99.90;;;;;;5094259;28;20036;-75
2022/05/02 00:20:25;;;;;;;11.02;6.65;;;6.70;99.90;;;;;;5094407;28;20044;-75
2022/05/02 00:22:51;;;;;;;13.30;6.63;;;6.70;99.90;;;;;;5094012;28;20051;-77
2022/05/02 00:25:17;;;;;;;11.57;6.68;;;6.70;99.90;;;;;;5093853;28;20044;-77
2022/05/02 00:27:43;;;;;;;10.50;6.65;;;6.60;99.90;;;;;;5093849;28;20044;-77
2022/05/02 00:30:10;;;;;;;9.65;6.25;;;6.60;99.90;;;;;;5093570;28;20089;-78
2022/05/02 00:32:36;;;;;;;9.55;5.85;;;6.60;99.90;;;;;;5093776;28;20101;-75
2022/05/02 00:35:02;;;;;;;18.88;6.50;;;6.60;99.90;;;;;;5093760;28;20044;-75
2022/05/02 00:37:29;;;;;;;8.75;6.40;;;6.60;99.90;;;;;;5094115;28;20158;-76
2022/05/02 00:39:54;;;;;;;10.20;6.33;;;6.50;99.90;;;;;;5093851;28;20480;-75
2022/05/02 00:42:20;;;;;;;9.13;6.20;;;6.50;99.90;;;;;;5094034;28;20122;-75
2022/05/02 00:44:46;;;;;;;8.88;6.60;;;6.50;99.90;;;;;;5093053;28;20043;-76
2022/05/02 00:47:15;;;;;;;10.10;6.55;;;6.50;99.90;;;;;;5093946;28;20419;-75
2022/05/02 00:49:41;;;;;;;11.57;6.20;;;6.40;99.90;;;;;;5094075;28;20085;-75
2022/05/02 00:52:07;;;;;;;11.57;6.55;;;6.40;99.90;;;;;;5093851;28;20044;-77
2022/05/02 00:54:35;;;;;;;10.60;6.72;;;6.30;99.90;;;;;;5093916;28;20506;-75
2022/05/02 00:57:02;;;;;;;9.35;7.00;;;6.30;99.90;;;;;;5093606;28;20048;-76
2022/05/02 00:59:28;;;;;;;10.75;6.57;;;6.30;99.90;;;;;;5093629;28;20040;-77
2022/05/02 01:01:53;;;;;;;9.97;6.27;;;6.20;99.90;;;;;;5093755;28;20044;-77
2022/05/02 01:04:19;;;;;;;11.38;6.63;;;6.20;99.90;;;;;;5093593;28;20426;-75
2022/05/02 01:09:32;;;;;;;11.00;6.80;;;6.10;99.90;;;;;;5093419;28;20472;-76
2022/05/02 01:11:57;;;;;;;10.18;7.03;;;6.00;99.90;;;;;;5093950;28;20392;-77
2022/05/02 01:14:23;;;;;;;8.98;6.15;;;6.00;99.90;;;;;;5092120;28;20059;-78
2022/05/02 01:16:49;;;;;;;10.20;7.13;;;6.00;99.90;;;;;;5093517;28;20094;-76
2022/05/02 01:19:14;;;;;;;10.95;6.70;;;6.00;99.90;;;;;;5092460;28;20093;-76
2022/05/02 01:21:44;;;;;;;12.50;7.15;;;5.90;99.90;;;;;;5093168;28;20051;-76
2022/05/02 01:24:10;;;;;;;12.63;7.50;;;5.90;99.90;;;;;;5093441;28;20062;-77
2022/05/02 01:26:37;;;;;;;11.50;7.15;;;5.90;99.90;;;;;;5093372;28;20036;-75
2022/05/02 01:29:04;;;;;;;11.38;6.35;;;5.80;99.90;;;;;;5093275;28;20091;-76
2022/05/02 01:31:30;;;;;;;10.70;6.97;;;5.80;99.90;;;;;;5093326;28;20059;-75
2022/05/02 01:33:56;;;;;;;11.45;7.40;;;5.70;99.90;;;;;;5093317;28;20051;-77
2022/05/02 01:36:22;;;;;;;10.98;6.68;;;5.70;99.90;;;;;;5093261;28;20395;-77
2022/05/02 01:38:49;;;;;;;9.98;6.53;;;5.60;99.90;;;;;;5093345;28;20047;-77
2022/05/02 01:41:15;;;;;;;10.93;7.30;;;5.60;99.90;;;;;;5094962;28;20040;-77
2022/05/02 01:43:40;;;;;;;9.27;7.00;;;5.60;99.90;;;;;;5096969;28;20181;-75
2022/05/02 01:46:08;;;;;;;12.55;7.05;;;5.50;99.90;;;;;;5096863;28;20044;-75
2022/05/02 01:48:34;;;;;;;13.10;7.53;;;5.50;99.90;;;;;;5096737;28;20044;-74
2022/05/02 01:50:59;;;;;;;11.15;7.28;;;5.40;99.90;;;;;;5096730;28;20476;-76
2022/05/02 01:53:26;;;;;;;12.98;8.05;;;5.40;99.90;;;;;;5097022;28;20044;-77
2022/05/02 01:55:52;;;;;;;11.85;7.93;;;5.40;99.90;;;;;;5096717;28;20047;-74
2022/05/02 01:58:18;;;;;;;11.02;6.75;;;5.30;99.90;;;;;;5096642;28;20047;-75
2022/05/02 02:00:44;;;;;;;12.73;7.10;;;5.30;99.90;;;;;;5096528;28;20048;-76
2022/05/02 02:03:10;;;;;;;11.07;7.28;;;5.30;99.90;;;;;;5096535;28;20044;-76
2022/05/02 02:05:51;;;;;;;12.75;7.38;;;5.20;99.90;;;;;;5097253;28;20533;-75
2022/05/02 02:08:22;;;;;;;10.38;7.32;;;5.20;99.90;;;;;;5096391;28;20040;-75
2022/05/02 02:10:50;;;;;;;11.95;7.18;;;5.10;99.90;;;;;;5096471;28;20044;-75
2022/05/02 02:13:16;;;;;;;13.25;7.93;;;5.10;99.90;;;;;;5096404;28;20063;-75
2022/05/02 02:15:42;;;;;;;11.77;7.13;;;5.10;99.90;;;;;;5096307;28;20051;-77
2022/05/02 02:18:08;;;;;;;13.18;7.85;;;5.00;99.90;;;;;;5096290;28;20079;-76
2022/05/02 02:20:35;;;;;;;11.77;7.50;;;5.00;99.90;;;;;;5096218;28;20040;-76
2022/05/02 02:23:02;;;;;;;9.93;7.03;;;5.00;99.90;;;;;;5096226;28;20042;-76
2022/05/02 02:25:27;;;;;;;;;;;5.00;99.90;;;;;;5096556;28;20137;-76
2022/05/02 02:27:53;;;;;;;11.10;7.25;;;4.90;99.90;;;;;;5095926;28;20390;-77
2022/05/02 02:30:19;;;;;;;13.77;7.17;;;4.80;99.90;;;;;;5095922;28;20036;-74
2022/05/02 02:32:45;;;;;;;13.00;7.55;;;4.80;99.90;;;;;;5095888;28;20044;-77
2022/05/02 02:35:11;;;;;;;12.68;7.65;;;4.80;99.90;;;;;;5096204;28;20055;-75
2022/05/02 02:37:37;;;;;;;12.32;7.15;;;4.80;99.90;;;;;;5095960;28;20044;-75
2022/05/02 02:40:03;;;;;;;12.68;7.72;;;4.80;99.90;;;;;;5095754;28;20047;-75
2022/05/02 02:42:28;;;;;;;13.13;7.97;;;4.70;99.90;;;;;;5095779;28;20043;-74
2022/05/02 02:44:54;;;;;;;11.73;7.38;;;4.70;99.90;;;;;;5095658;28;20043;-76
2022/05/02 02:47:20;;;;;;;13.82;7.57;;;4.70;99.90;;;;;;5095546;28;20044;-76
2022/05/02 02:49:45;;;;;;;15.30;9.07;;;4.60;99.90;;;;;;5095654;28;20044;-77
2022/05/02 02:52:11;;;;;;;12.80;7.40;;;4.60;99.90;;;;;;5095281;28;20476;-76
2022/05/02 02:54:36;;;;;;;12.55;8.40;;;4.60;99.90;;;;;;5095455;28;20126;-77
2022/05/02 02:57:02;;;;;;;14.65;8.15;;;4.60;99.90;;;;;;5095379;28;20051;-75
2022/05/02 02:59:28;;;;;;;13.68;7.65;;;4.60;99.90;;;;;;5095416;28;20086;-77
2022/05/02 03:01:55;;;;;;;12.93;7.95;;;4.60;99.90;;;;;;5095390;28;20134;-75
2022/05/02 03:07:06;;;;;;;12.05;8.57;;;4.50;99.90;;;;;;5095286;28;20048;-77
2022/05/02 03:09:31;;;;;;;12.60;8.05;;;4.40;99.90;;;;;;5095119;28;20040;-77
2022/05/02 03:11:58;;;;;;;15.38;8.13;;;4.40;99.90;;;;;;5095201;28;20079;-75
2022/05/02 03:14:23;;;;;;;13.38;8.35;;;4.40;99.90;;;;;;5095601;28;20135;-76
2022/05/02 03:16:49;;;;;;;13.75;8.32;;;4.40;99.90;;;;;;5095022;28;20123;-75
2022/05/02 03:19:14;;;;;;;17.80;8.95;;;4.40;99.90;;;;;;5095088;28;20036;-75
2022/05/02 03:21:40;;;;;;;13.43;7.95;;;4.40;99.90;;;;;;5094969;28;20046;-76
2022/05/02 03:24:06;;;;;;;14.18;8.30;;;4.40;99.90;;;;;;5094966;28;20044;-77
2022/05/02 03:26:32;;;;;;;13.93;8.18;;;4.30;99.90;;;;;;5094827;28;20051;-77
2022/05/02 03:28:57;;;;;;;11.60;8.02;;;4.30;99.90;;;;;;5094692;28;20039;-76
2022/05/02 03:31:23;;;;;;;16.15;8.32;;;4.30;99.90;;;;;;5094796;28;20426;-77
2022/05/02 03:33:48;;;;;;;9.45;6.97;;;4.20;99.90;;;;;;5094650;28;20495;-76
2022/05/02 03:36:14;;;;;;;12.13;7.80;;;4.20;99.90;;;;;;5094639;28;20472;-77
2022/05/02 03:38:39;;;;;;;11.82;8.50;;;4.10;99.90;;;;;;5094662;28;20173;-77
2022/05/02 03:41:05;;;;;;;14.52;8.38;;;4.10;99.90;;;;;;5094584;28;20508;-78
2022/05/02 03:43:32;;;;;;;11.88;7.82;;;4.10;99.90;;;;;;5094596;28;20083;-76
2022/05/02 03:45:58;;;;;;;14.38;9.35;;;4.30;99.90;;;;;;5094502;28;20044;-76
2022/05/02 03:48:26;;;;;;;16.50;9.40;;;4.20;99.90;;;;;;5094401;28;20102;-75
2022/05/02 03:50:52;;;;;;;14.43;8.90;;;4.20;99.90;;;;;;5094529;28;20074;-77
2022/05/02 03:53:18;;;;;;;13.88;8.95;;;4.20;99.90;;;;;;5094294;28;20048;-76
2022/05/02 03:55:45;;;;;;;17.10;9.27;;;4.20;99.90;;;;;;5094253;28;20040;-74
2022/05/02 03:58:11;;;;;;;14.93;8.68;;;4.30;99.90;;;;;;5094070;28;20058;-76
2022/05/02 04:00:37;;;;;;;12.73;9.02;;;4.20;99.90;;;;;;5094307;28;20373;-77
2022/05/02 04:03:03;;;;;;;13.73;8.25;;;4.20;99.90;;;;;;5094308;28;20127;-75
2022/05/02 04:05:28;;;;;;;14.90;8.85;;;4.10;99.90;;;;;;5093635;28;20123;-76
2022/05/02 04:07:54;;;;;;;14.07;9.00;;;4.10;99.90;;;;;;5094118;28;20048;-77
2022/05/02 04:10:19;;;;;;;16.08;9.18;;;4.10;99.90;;;;;;5093348;28;20369;-75
2022/05/02 04:12:45;;;;;;;14.73;9.45;;;4.10;99.90;;;;;;5093914;28;20074;-76
2022/05/02 04:15:11;;;;;;;13.75;8.77;;;4.00;99.90;;;;;;5094553;28;20117;-75
2022/05/02 04:17:38;;;;;;;14.15;8.50;;;4.00;99.90;;;;;;5094139;28;20044;-75
2022/05/02 04:20:05;;;;;;;14.40;9.05;;;4.00;99.90;;;;;;5094049;28;20048;-75
2022/05/02 04:22:31;;;;;;;14.02;8.68;;;4.10;99.90;;;;;;5093895;28;20095;-77
2022/05/02 04:24:56;;;;;;;14.52;9.32;;;4.00;99.90;;;;;;5093750;28;20083;-78
2022/05/02 04:27:22;;;;;;;11.88;8.35;;;4.10;99.90;;;;;;5093789;28;20048;-75
2022/05/02 04:29:48;;;;;;;14.35;8.75;;;4.10;99.90;;;;;;5093926;28;20056;-75
2022/05/02 04:32:13;;;;;;;12.25;7.93;;;4.10;99.90;;;;;;5093894;28;20044;-75
2022/05/02 04:34:39;;;;;;;17.50;9.93;;;4.10;99.90;;;;;;5093679;28;20131;-76
2022/05/02 04:37:05;;;;;;;14.10;8.77;;;4.10;99.90;;;;;;5093871;28;20044;-76
2022/05/02 04:39:30;;;;;;;18.10;8.93;;;4.10;99.90;;;;;;5092589;28;20036;-75
2022/05/02 04:41:56;;;;;;;12.93;9.38;;;4.10;99.90;;;;;;5093731;28;20040;-76
2022/05/02 04:44:21;;;;;;;13.05;8.45;;;4.20;99.90;;;;;;5093569;28;20083;-76
2022/05/02 04:46:47;;;;;;;14.63;8.70;;;4.20;99.90;;;;;;5092393;28;20043;-75
2022/05/02 04:49:13;;;;;;;13.68;8.43;;;4.30;99.90;;;;;;5092588;28;20043;-77
2022/05/02 04:51:38;;;;;;;14.25;9.07;;;4.30;99.90;;;;;;5093650;28;20092;-75
2022/05/02 04:54:04;;;;;;;15.02;8.85;;;4.40;99.90;;;;;;5093605;28;20067;-76
2022/05/02 04:56:29;;;;;;;15.60;9.18;;;4.40;99.90;;;;;;5093507;28;20071;-76
2022/05/02 04:58:55;;;;;;;12.95;8.43;;;4.40;99.90;;;;;;5094096;28;20094;-76
2022/05/02 05:01:20;;;;;;;14.60;9.73;;;4.50;99.90;;;;;;5093600;28;20044;-76
2022/05/02 05:03:46;;;;;;;15.75;8.52;;;4.50;99.90;;;;;;5093522;28;20051;-76
2022/05/02 05:06:12;;;;;;;15.70;8.98;;;4.60;99.90;;;;;;5093521;28;20044;-77
2022/05/02 05:08:38;;;;;;;12.63;8.63;;;4.60;99.90;;;;;;5093375;28;20123;-75
2022/05/02 05:11:27;;;;;;;15.45;9.70;;;4.60;99.90;;;;;;5093492;28;20480;-76
2022/05/02 05:17:03;;;;;;;20.67;9.70;;;4.70;99.90;;;;;;5096088;28;20047;-77
2022/05/02 05:19:46;;;;;;;15.15;9.20;;;4.80;99.90;;;;;;5097377;28;20043;-76
2022/05/02 05:22:39;;;;;;;15.43;9.15;;;4.90;99.90;;;;;;5097716;28;20079;-74
2022/05/02 05:25:29;;;;;;;14.48;9.63;;;5.00;99.90;;;;;;5097523;28;20044;-76
2022/05/02 05:28:15;;;;;;;15.93;9.48;;;5.10;99.90;;;;;;5095979;28;20044;-75
2022/05/02 05:30:43;;;;;;;14.43;9.98;;;5.20;99.90;;;;;;5097576;28;20377;-75
2022/05/02 05:33:29;;;;;;;17.98;10.18;;;5.30;99.90;;;;;;5097033;28;20044;-74
2022/05/02 05:36:23;;;;;;;18.90;9.95;;;5.40;99.90;;;;;;5097123;28;20067;-76
2022/05/02 05:39:00;;;;;;;12.45;8.82;;;5.50;99.90;;;;;;5097140;28;20044;-76
2022/05/02 05:41:37;;;;;;;12.98;8.70;;;5.60;99.90;;;;;;5097051;28;20052;-75
2022/05/02 05:44:31;;;;;;;15.63;10.05;;;5.70;99.90;;;;;;5096827;28;20048;-73
2022/05/02 05:47:31;;;;;;;22.50;10.32;;;5.80;99.90;;;;;;5097377;28;20066;-75
2022/05/02 05:50:24;;;;;;;19.17;10.32;;;6.00;99.90;;;;;;5097092;28;20044;-75
2022/05/02 05:53:16;;;;;;;18.02;10.35;;;6.10;99.90;;;;;;5096877;28;20048;-72
2022/05/02 05:56:09;;;;;;;16.15;9.90;;;6.30;99.90;;;;;;5106657;28;20047;-71
2022/05/02 05:58:48;;;;;;;14.40;9.73;;;6.50;99.90;;;;;;5116107;28;20035;-75
2022/05/02 06:01:18;;;;;;;14.55;9.70;;;6.70;99.90;;;;;;5116528;28;20097;-75
2022/05/02 06:04:14;;;;;;;16.73;10.55;;;6.90;99.90;;;;;;5117180;28;20082;-76
2022/05/02 06:06:40;;;;;;;19.20;9.80;;;7.10;99.90;;;;;;5116832;28;20043;-75
2022/05/02 06:09:06;;;;;;;18.42;10.32;;;7.30;99.90;;;;;;5116715;28;20040;-73
2022/05/02 06:11:33;;;;;;;16.53;9.33;;;7.50;99.90;;;;;;5116762;28;20050;-77
2022/05/02 06:14:02;;;;;;;17.42;9.90;;;7.70;99.90;;;;;;5116276;28;20091;-76
2022/05/02 06:19:18;;;;;;;16.15;9.82;;;8.10;99.90;;;;;;5116607;28;20051;-76
2022/05/02 06:21:44;;;;;;;18.00;9.68;;;8.30;99.90;;;;;;5114928;28;20075;-74
2022/05/02 06:24:11;;;;;;;17.08;9.23;;;8.60;99.90;;;;;;5116167;28;20410;-73
2022/05/02 06:26:38;;;;;;;;;;;8.80;99.90;;;;;;5116330;28;20080;-74
2022/05/02 06:29:07;;;;;;;19.73;10.15;;;9.00;99.90;;;;;;5115383;28;20290;-74
2022/05/02 06:31:40;;;;;;;17.58;10.27;;;9.20;99.90;;;;;;5116165;28;20082;-75
2022/05/02 06:34:06;;;;;;;16.40;9.40;;;9.40;99.90;;;;;;5116004;28;20491;-75
2022/05/02 06:37:10;;;;;;;16.13;10.23;;;9.50;99.90;;;;;;5114828;28;20043;-76
2022/05/02 06:40:03;;;;;;;14.25;8.40;;;9.80;99.90;;;;;;5115993;28;20048;-75
2022/05/02 06:42:41;;;;;;;15.32;9.02;;;10.00;99.90;;;;;;5116092;28;20087;-76
2022/05/02 06:45:11;;;;;;;;;;;10.20;99.90;;;;;;5116365;27;20388;-75
2022/05/02 06:48:05;;;;;;;15.85;8.10;;;10.40;99.90;;;;;;5115866;28;19928;-75
2022/05/02 06:50:34;;;;;;;12.32;7.35;;;10.50;99.90;;;;;;5115696;28;20039;-76
2022/05/02 06:53:18;;;;;;;10.77;8.18;;;10.60;99.90;;;;;;5115927;28;20070;-75
2022/05/02 06:55:49;;;;;;;12.60;8.68;;;10.80;99.90;;;;;;5114881;28;20071;-77
2022/05/02 06:58:29;;;;;;;11.70;8.02;;;10.90;99.90;;;;;;5115673;28;20040;-77
2022/05/02 07:01:07;;;;;;;13.20;8.60;;;11.00;99.90;;;;;;5115592;28;20044;-75
2022/05/02 07:03:42;;;;;;;12.82;7.95;;;11.20;99.90;;;;;;5115681;28;20052;-77
2022/05/02 07:06:21;;;;;;;13.68;8.52;;;11.20;99.90;;;;;;5114941;28;20047;-76
2022/05/02 07:09:01;;;;;;;16.65;8.88;;;11.30;99.90;;;;;;5115142;28;20471;-75
2022/05/02 07:11:56;;;;;;;12.40;7.93;;;11.40;99.90;;;;;;5115723;28;20040;-78
2022/05/02 07:14:29;;;;;;;9.77;6.97;;;11.50;99.90;;;;;;5113862;28;20104;-77
2022/05/02 07:17:01;;;;;;;11.02;7.97;;;11.80;99.90;;;;;;5114585;28;20090;-75
2022/05/02 07:19:52;;;;;;;14.55;8.05;;;11.90;99.90;;;;;;5115219;28;20039;-76
2022/05/02 07:22:37;;;;;;;11.50;8.13;;;12.00;99.90;;;;;;5115174;28;20479;-76
2022/05/02 07:25:12;;;;;;;13.57;7.65;;;12.20;99.90;;;;;;5114936;28;20052;-77
2022/05/02 07:28:16;;;;;;;15.10;8.77;;;12.30;99.90;;;;;;5115224;28;20399;-76
2022/05/02 07:30:43;;;;;;;13.60;7.45;;;12.40;99.90;;;;;;5114869;28;20075;-76
2022/05/02 07:33:11;;;;;;;10.40;7.55;;;12.40;99.90;;;;;;5114873;28;20051;-76
2022/05/02 07:35:37;;;;;;;10.27;7.32;;;12.60;99.90;;;;;;5113942;28;20070;-73
2022/05/02 07:38:04;;;;;;;13.60;8.18;;;12.60;99.90;;;;;;5114716;28;20043;-75
2022/05/02 07:40:30;;;;;;;12.20;8.07;;;12.70;99.90;;;;;;5114956;28;20040;-77
2022/05/02 07:42:58;;;;;;;13.88;8.07;;;12.70;99.90;;;;;;5114868;28;20040;-73
2022/05/02 07:45:28;;;;;;;17.02;7.50;;;12.80;99.90;;;;;;5114432;28;20503;-75
2022/05/02 07:47:58;;;;;;;11.40;7.60;;;12.90;99.90;;;;;;5114343;28;20035;-75
2022/05/02 07:50:27;;;;;;;13.88;7.97;;;13.00;99.90;;;;;;5114682;28;20043;-76
2022/05/02 07:52:54;;;;;;;12.27;6.88;;;13.10;99.90;;;;;;5114680;28;20047;-76
2022/05/02 07:55:22;;;;;;;12.52;7.95;;;13.20;99.90;;;;;;5114185;27;20445;-75
2022/05/02 07:57:48;;;;;;;11.40;7.78;;;13.30;99.90;;;;;;5114512;28;20040;-75
2022/05/02 08:00:14;;;;;;;12.15;6.93;;;13.40;99.90;;;;;;5114459;28;20050;-75
2022/05/02 08:02:41;;;;;;;10.45;7.25;;;13.50;99.90;;;;;;5114280;28;20039;-75
2022/05/02 08:05:07;;;;;;;10.73;5.78;;;13.50;99.90;;;;;;5114485;28;20040;-75
2022/05/02 08:07:41;;;;;;;9.03;6.13;;;13.50;99.90;;;;;;5114331;28;20093;-77
2022/05/02 08:10:35;;;;;;;16.55;7.80;;;13.60;99.90;;;;;;5114640;28;20043;-77
2022/05/02 08:13:14;;;;;;;9.63;6.45;;;13.70;99.90;;;;;;5113810;28;20052;-76
2022/05/02 08:16:02;;;;;;;13.65;6.38;;;13.90;99.90;;;;;;5114547;28;20043;-76
2022/05/02 08:19:03;;;;;;;10.07;6.68;;;14.00;99.90;;;;;;5114072;28;20118;-74
2022/05/02 08:27:51;;;;;;;9.63;6.30;;;14.50;99.90;;;;;;5113681;28;20044;-75
2022/05/02 08:30:24;;;;;;;10.80;6.80;;;14.40;99.90;;;;;;5114131;28;20044;-75
2022/05/02 08:33:07;;;;;;;12.57;6.00;;;14.30;99.90;;;;;;5113872;28;20093;-76
2022/05/02 08:35:50;;;;;;;8.90;5.55;;;14.50;99.90;;;;;;5113961;28;20052;-74
2022/05/02 08:38:40;;;;;;;12.25;6.75;;;14.50;99.90;;;;;;5113698;28;20096;-76
2022/05/02 08:41:08;;;;;;;11.05;5.90;;;14.70;99.90;;;;;;5113933;28;20093;-76
2022/05/02 08:44:11;;;;;;;9.10;5.53;;;14.90;99.90;;;;;;5113920;28;20040;-76
2022/05/02 08:47:07;;;;;;;11.07;5.10;;;15.00;99.90;;;;;;5113587;28;20092;-74
2022/05/02 08:49:44;;;;;;;10.00;5.28;;;15.10;99.90;;;;;;5113872;28;20040;-75
2022/05/02 08:52:47;;;;;;;10.85;5.55;;;15.10;99.90;;;;;;5117346;28;20100;-75
2022/05/02 08:55:50;;;;;;;11.20;5.55;;;15.10;99.90;;;;;;5118158;28;20048;-76
2022/05/02 08:58:28;;;;;;;8.68;5.32;;;15.30;99.90;;;;;;5117790;28;20123;-77
2022/05/02 09:01:04;;;;;;;;;;;15.50;99.90;;;;;;5117973;28;20372;-77
2022/05/02 09:03:54;;;;;;;10.40;5.05;;;15.50;98.10;;;;;;5117999;28;19919;-77
2022/05/02 09:06:54;;;;;;;11.30;5.30;;;15.50;97.60;;;;;;5118030;28;20380;-73
2022/05/02 09:09:57;;;;;;;11.68;6.00;;;15.70;97.80;;;;;;5093400;28;20048;-78
2022/05/02 09:12:41;;;;;;;9.65;6.13;;;15.80;96.30;;;;;;5117549;28;20063;-79
2022/05/02 09:15:38;;;;;;;7.68;5.45;;;15.80;97.90;;;;;;5117808;28;20055;-79
2022/05/02 09:18:42;;;;;;;9.17;6.00;;;15.90;96.10;;;;;;5117778;28;20044;-76
2022/05/02 09:21:24;;;;;;;12.38;5.40;;;15.90;94.80;;;;;;5117744;27;20044;-77
2022/05/02 09:24:24;;;;;;;8.65;5.85;;;15.80;95.90;;;;;;5116661;28;20048;-77
2022/05/02 09:27:28;;;;;;;10.60;5.50;;;15.80;96.10;;;;;;5117516;28;20054;-77
2022/05/02 09:30:24;;;;;;;7.95;5.13;;;15.90;96.40;;;;;;5117313;28;20039;-78
2022/05/02 09:33:02;;;;;;;7.40;5.07;;;16.00;95.80;;;;;;5116412;28;20085;-77
2022/05/02 09:35:33;;;;;;;8.70;5.80;;;16.00;96.80;;;;;;5117253;28;20039;-76
2022/05/02 09:38:25;;;;;;;8.55;5.30;;;16.10;96.00;;;;;;5117182;28;20058;-78
2022/05/02 09:41:00;;;;;;;8.00;5.22;;;16.10;94.30;;;;;;5117191;28;20055;-77
2022/05/02 09:50:05;;;;;;;8.45;6.18;;;16.30;95.10;;;;;;5116746;28;20039;-74
2022/05/02 09:53:02;;;;;;;10.80;6.00;;;16.40;94.10;;;;;;5116846;28;20120;-73
2022/05/02 09:58:42;;;;;;;9.07;5.20;;;16.50;94.60;;;;;;5116611;28;20043;-72
2022/05/02 10:01:18;;;;;;;8.57;5.85;;;16.70;95.20;;;;;;5116662;28;20501;-73
2022/05/02 10:03:58;;;;;;;8.75;6.07;;;16.60;92.60;;;;;;5114099;28;20036;-71
2022/05/02 10:06:32;;;;;;;8.18;6.20;;;16.70;93.90;;;;;;5116679;28;20069;-73
2022/05/02 10:09:14;;;;;;;10.77;6.25;;;16.80;92.80;;;;;;5116337;28;20499;-76
2022/05/02 10:11:46;;;;;;;11.73;5.93;;;16.90;92.20;;;;;;5116751;27;20047;-76
2022/05/02 10:14:38;;;;;;;8.80;5.93;;;17.00;92.00;;;;;;5116317;28;20075;-76
2022/05/02 10:17:17;;;;;;;9.82;6.07;;;17.10;92.30;;;;;;5116478;28;20051;-76
2022/05/02 10:20:18;;;;;;;8.98;6.10;;;17.20;93.10;;;;;;5115390;28;20055;-76
2022/05/02 10:23:11;;;;;;;8.05;6.43;;;17.10;90.80;;;;;;5115469;28;20043;-76
2022/05/02 10:25:58;;;;;;;9.70;5.80;;;17.20;91.80;;;;;;5116351;28;20048;-77
2022/05/02 10:28:52;;;;;;;8.20;6.13;;;17.40;91.70;;;;;;5116001;28;20051;-77
2022/05/02 10:31:21;;;;;;;9.30;5.65;;;17.40;92.30;;;;;;5115264;28;20062;-77
2022/05/02 10:33:50;;;;;;;10.20;5.75;;;17.30;92.10;;;;;;5114960;28;20082;-77
2022/05/02 10:36:20;;;;;;;9.63;6.25;;;17.30;92.00;;;;;;5116147;28;20058;-77
2022/05/02 10:39:01;;;;;;;9.52;6.22;;;17.10;91.80;;;;;;5116273;28;20095;-78
2022/05/02 10:41:30;;;;;;;12.40;6.68;;;17.20;92.20;;;;;;5115988;28;20510;-78
2022/05/02 10:44:04;;;;;;;10.40;6.45;;;17.10;91.10;;;;;;5114917;28;20043;-77
2022/05/02 10:46:31;;;;;;;9.57;6.13;;;17.00;90.70;;;;;;5115099;28;20055;-76
2022/05/02 10:49:15;;;;;;;9.07;5.72;;;16.90;91.80;;;;;;5115919;28;20173;-75
2022/05/02 10:51:46;;;;;;;10.32;6.78;;;17.00;92.10;;;;;;5115554;28;20509;-75
2022/05/02 10:54:17;;;;;;;12.00;6.80;;;17.20;91.40;;;;;;5115375;28;20046;-77
2022/05/02 10:56:47;;;;;;;10.95;7.13;;;17.30;91.60;;;;;;5115551;28;20047;-78
2022/05/02 10:59:15;;;;;;;8.63;6.25;;;17.30;91.20;;;;;;5114769;28;20048;-78
2022/05/02 11:02:04;;;;;;;15.10;7.25;;;17.20;90.60;;;;;;5115672;28;20043;-78
2022/05/02 11:04:54;;;;;;;9.98;6.70;;;17.00;91.70;;;;;;5115223;28;20040;-77
2022/05/02 11:07:35;;;;;;;10.85;6.05;;;17.20;91.70;;;;;;5115553;28;20070;-78
2022/05/02 11:10:09;;;;;;;13.02;6.72;;;17.30;90.30;;;;;;5115580;28;20096;-78
2022/05/02 11:13:07;;;;;;;9.93;6.82;;;17.30;91.30;;;;;;5114887;28;20074;-77
2022/05/02 11:16:07;;;;;;;8.18;6.20;;;17.30;90.50;;;;;;5115256;28;20046;-78
2022/05/02 11:22:01;;;;;;;8.25;6.05;;;17.80;90.60;;;;;;5115141;28;20446;-78
2022/05/02 11:25:08;;;;;;;10.13;7.13;;;17.80;90.30;;;;;;5115081;27;20441;-78
2022/05/02 11:28:04;;;;;;;8.13;6.35;;;17.60;88.70;;;;;;5114216;28;20047;-78
2022/05/02 11:30:40;;;;;;;9.00;6.80;;;17.50;89.80;;;;;;5115108;28;20056;-78
2022/05/02 11:33:16;;;;;;;10.00;6.32;;;17.60;90.10;;;;;;5115132;28;20047;-78
2022/05/02 11:35:47;;;;;;;8.68;6.97;;;17.60;89.40;;;;;;5114981;28;20199;-78
2022/05/02 11:38:30;;;;;;;8.65;6.20;;;17.80;88.70;;;;;;5114983;28;20204;-79
2022/05/02 11:41:08;;;;;;;11.05;6.40;;;18.00;87.70;;;;;;5114725;28;20160;-77
2022/05/02 11:43:36;;;;;;;9.68;6.28;;;18.20;87.00;;;;;;5114936;28;20036;-78
2022/05/02 11:46:02;;;;;;;8.00;5.95;;;18.30;86.70;;;;;;5114567;28;20503;-77
2022/05/02 11:48:51;;;;;;;11.27;6.00;;;18.50;88.50;;;;;;5114504;28;20083;-78
2022/05/02 11:51:47;;;;;;;11.23;6.13;;;18.60;84.50;;;;;;5113595;28;20050;-77
2022/05/02 11:54:39;;;;;;;8.13;5.82;;;18.60;85.50;;;;;;5114219;28;20503;-78
2022/05/02 11:57:23;;;;;;;7.65;5.65;;;18.90;85.40;;;;;;5114575;28;20105;-79
2022/05/02 12:00:05;;;;;;;9.60;5.90;;;19.10;85.00;;;;;;5114398;28;20119;-79
2022/05/02 12:02:36;;;;;;;15.80;6.32;;;19.10;85.20;;;;;;5113328;28;20097;-78
2022/05/02 12:05:17;;;;;;;12.23;6.78;;;19.10;85.30;;;;;;5114308;28;20058;-81
2022/05/02 12:07:50;;;;;;;8.40;5.68;;;19.00;85.10;;;;;;5114438;28;20047;-78
2022/05/02 12:10:17;;;;;;;8.48;5.80;;;18.60;84.90;;;;;;5114118;28;20039;-78
2022/05/02 12:12:50;;;;;;;11.77;5.57;;;18.20;84.70;;;;;;5113742;28;20102;-79
2022/05/02 12:15:17;;;;;;;6.65;5.10;;;17.70;83.40;;;;;;5114153;28;20472;-79
2022/05/02 12:17:53;;;;;;;10.13;5.05;;;17.50;87.00;;;;;;5114031;28;20069;-80
2022/05/02 12:20:29;;;;;;;9.98;5.38;;;17.50;85.70;;;;;;5114299;28;20155;-79
2022/05/02 12:23:04;;;;;;;8.00;5.38;;;17.70;85.40;;;;;;5113997;28;20379;-79
2022/05/02 12:25:32;;;;;;;7.03;5.47;;;17.90;86.00;;;;;;5112347;28;20036;-80
2022/05/02 12:28:02;;;;;;;11.25;5.65;;;18.20;82.20;;;;;;5113964;28;20044;-78
2022/05/02 12:30:29;;;;;;;8.35;5.10;;;18.20;84.50;;;;;;5114214;28;20055;-78
2022/05/02 12:32:59;;;;;;;7.60;5.07;;;18.40;83.50;;;;;;5114355;28;20044;-77
2022/05/02 12:35:33;;;;;;;7.53;4.93;;;18.60;83.80;;;;;;5113927;28;20047;-80
2022/05/02 12:38:08;;;;;;;7.70;5.75;;;18.70;86.10;;;;;;5113868;28;20073;-80
2022/05/02 12:40:35;;;;;;;8.63;5.05;;;18.80;84.00;;;;;;5096014;28;20058;-80
2022/05/02 12:43:10;;;;;;;8.07;5.35;;;18.90;80.50;;;;;;5112723;28;20078;-79
2022/05/02 12:45:45;;;;;;;9.07;5.47;;;18.80;80.90;;;;;;5113940;28;20047;-79
2022/05/02 12:48:21;;;;;;;7.18;5.20;;;18.90;81.10;;;;;;5113776;28;20386;-79
2022/05/02 12:50:50;;;;;;;6.85;4.90;;;19.10;79.50;;;;;;5112750;28;20048;-81
2022/05/02 12:56:07;;;;;;;6.93;5.55;;;19.10;79.50;;;;;;5114141;28;20043;-79
2022/05/02 13:01:21;;;;;;;8.88;5.03;;;19.20;81.10;;;;;;5114074;28;20086;-79
2022/05/02 13:04:02;;;;;;;8.32;5.30;;;19.30;79.90;;;;;;5113718;28;20089;-79
2022/05/02 13:06:30;;;;;;;7.72;5.20;;;19.40;80.30;;;;;;5113880;28;20471;-79
2022/05/02 13:09:16;;;;;;;7.65;4.45;;;19.50;80.70;;;;;;5113542;28;20071;-78
2022/05/02 13:11:43;;;;;;;7.25;4.78;;;19.70;80.80;;;;;;5114121;28;20054;-81
2022/05/02 13:14:23;;;;;;;6.90;4.47;;;19.70;80.00;;;;;;5113651;28;20059;-79
2022/05/02 13:16:49;;;;;;;8.05;4.63;;;19.70;78.00;;;;;;5113837;28;20043;-80
2022/05/02 13:19:15;;;;;;;6.85;4.80;;;19.70;78.80;;;;;;5113460;28;20476;-79
2022/05/02 13:21:42;;;;;;;5.90;4.60;;;19.70;77.90;;;;;;5113557;28;20043;-79
2022/05/02 13:24:10;;;;;;;7.07;4.50;;;19.70;78.80;;;;;;5113762;28;20043;-78
2022/05/02 13:27:02;;;;;;;6.65;4.63;;;19.60;78.70;;;;;;5113211;28;20051;-80
2022/05/02 13:29:56;;;;;;;7.88;4.10;;;19.60;77.50;;;;;;5113608;28;20395;-79
2022/05/02 13:32:27;;;;;;;7.43;4.35;;;19.80;77.70;;;;;;5113868;28;20044;-80
2022/05/02 13:35:11;;;;;;;6.82;4.20;;;19.80;77.50;;;;;;5113606;28;20163;-79
2022/05/02 13:37:48;;;;;;;9.18;5.28;;;19.60;74.30;;;;;;5115538;28;20151;-77
2022/05/02 13:40:18;;;;;;;22.77;5.50;;;19.40;76.70;;;;;;5117228;28;20039;-78
2022/05/02 13:43:04;;;;;;;5.40;4.05;;;19.40;77.20;;;;;;5117427;28;20433;-80
2022/05/02 13:45:46;;;;;;;8.15;4.43;;;19.40;76.50;;;;;;5115739;28;20134;-78
2022/05/02 13:48:50;;;;;;;9.18;4.30;;;19.30;76.10;;;;;;5117004;28;20075;-78
2022/05/02 13:51:34;;;;;;;8.23;4.07;;;19.30;77.50;;;;;;5094250;28;20051;-79
2022/05/02 13:54:33;;;;;;;8.25;4.05;;;19.40;76.10;;;;;;5116666;28;20048;-79
2022/05/02 13:57:08;;;;;;;5.18;3.95;;;19.40;77.60;;;;;;5116699;28;20051;-78